Time;durP1;ratioP1;P1;durP2;ratioP2;P2;SDS_P1;SDS_P2;PMS_P1;PMS_P2;Temp;Humidity;BMP_temperature;BMP_pressure;BME280_temperature;BME280_humidity;BME280_pressure;Samples;Min_cycle;Max_cycle;Signal;HPM_P1;HPM_P2
2022/03/28 00:00:18;;;;;;;25.73;15.32;;;8.90;99.90;;;;;;5056121;28;20040;-74
2022/03/28 00:02:44;;;;;;;21.73;14.20;;;8.90;99.90;;;;;;5056580;28;20036;-75
2022/03/28 00:05:14;;;;;;;21.23;14.25;;;8.80;99.90;;;;;;5056074;28;20539;-74
2022/03/28 00:07:43;;;;;;;23.70;14.65;;;8.80;99.90;;;;;;5055997;28;20033;-72
2022/03/28 00:10:10;;;;;;;22.42;13.75;;;8.70;99.90;;;;;;5056044;28;20451;-74
2022/03/28 00:12:38;;;;;;;23.17;14.40;;;8.60;99.90;;;;;;5055815;28;20096;-74
2022/03/28 00:15:05;;;;;;;22.42;13.95;;;8.50;99.90;;;;;;5055812;28;20021;-74
2022/03/28 00:17:32;;;;;;;21.75;14.48;;;8.50;99.90;;;;;;5037747;28;20040;-74
2022/03/28 00:19:59;;;;;;;23.00;14.55;;;8.40;99.90;;;;;;5056049;28;20158;-75
2022/03/28 00:22:24;;;;;;;22.42;14.35;;;8.30;99.90;;;;;;5055723;28;20159;-75
2022/03/28 00:24:50;;;;;;;25.77;14.38;;;8.30;99.90;;;;;;5055949;28;20476;-75
2022/03/28 00:27:17;;;;;;;22.05;13.52;;;8.30;99.90;;;;;;5055863;28;20059;-75
2022/03/28 00:29:44;;;;;;;23.27;14.43;;;8.20;99.90;;;;;;5055767;28;20021;-75
2022/03/28 00:32:10;;;;;;;19.30;13.02;;;8.20;99.90;;;;;;5055483;28;20099;-74
2022/03/28 00:34:36;;;;;;;22.85;14.00;;;8.10;99.90;;;;;;5055435;28;20021;-75
2022/03/28 00:37:02;;;;;;;21.48;13.73;;;8.00;99.90;;;;;;5055419;28;20517;-72
2022/03/28 00:39:28;;;;;;;22.70;13.88;;;8.00;99.90;;;;;;5055381;28;20021;-74
2022/03/28 00:41:54;;;;;;;22.33;14.63;;;8.00;99.90;;;;;;5055348;28;20374;-75
2022/03/28 00:44:20;;;;;;;26.25;14.90;;;8.00;99.90;;;;;;5055313;28;20025;-76
2022/03/28 00:46:46;;;;;;;24.00;15.25;;;7.90;99.90;;;;;;5055526;28;20072;-74
2022/03/28 00:49:12;;;;;;;22.52;13.88;;;8.00;99.90;;;;;;5055370;28;20024;-73
2022/03/28 00:51:38;;;;;;;22.75;13.45;;;8.00;99.90;;;;;;5055107;28;20466;-76
2022/03/28 00:54:05;;;;;;;22.00;13.73;;;8.00;99.90;;;;;;5055056;28;20009;-73
2022/03/28 00:56:31;;;;;;;23.55;14.85;;;8.00;99.90;;;;;;5055515;28;20021;-74
2022/03/28 00:58:58;;;;;;;22.15;13.93;;;7.90;99.90;;;;;;5055250;28;20020;-75
2022/03/28 01:01:25;;;;;;;22.45;14.60;;;7.90;99.90;;;;;;5055239;28;20025;-74
2022/03/28 01:03:51;;;;;;;22.80;14.82;;;7.90;99.90;;;;;;5054881;28;20024;-73
2022/03/28 01:06:17;;;;;;;23.02;15.05;;;7.90;99.90;;;;;;5054627;28;20103;-76
2022/03/28 01:08:42;;;;;;;22.42;14.38;;;7.90;99.90;;;;;;5055262;28;20025;-75
2022/03/28 01:11:13;;;;;;;18.73;13.32;;;7.80;99.90;;;;;;5054782;28;20025;-74
2022/03/28 01:13:41;;;;;;;21.65;14.20;;;7.80;99.90;;;;;;5054793;28;20025;-75
2022/03/28 01:16:08;;;;;;;23.17;13.70;;;7.70;99.90;;;;;;5054699;28;20100;-71
2022/03/28 01:18:34;;;;;;;22.77;13.82;;;7.60;99.90;;;;;;5054616;28;20025;-74
2022/03/28 01:21:01;;;;;;;23.42;13.50;;;7.60;99.90;;;;;;5036667;28;20111;-75
2022/03/28 01:23:28;;;;;;;21.48;13.85;;;7.50;99.90;;;;;;5055048;28;20048;-76
2022/03/28 01:25:54;;;;;;;20.52;13.07;;;7.40;99.90;;;;;;5054464;28;20082;-73
2022/03/28 01:28:26;;;;;;;23.63;14.23;;;7.40;99.90;;;;;;5054063;28;20021;-75
2022/03/28 01:30:54;;;;;;;22.60;14.93;;;7.40;99.90;;;;;;5054529;28;20033;-75
2022/03/28 01:33:20;;;;;;;20.98;13.15;;;7.40;99.90;;;;;;5054583;28;20013;-74
2022/03/28 01:35:45;;;;;;;22.88;13.68;;;7.40;99.90;;;;;;5054312;28;20394;-75
2022/03/28 01:38:13;;;;;;;21.55;13.95;;;7.40;99.90;;;;;;5054275;28;20091;-75
2022/03/28 01:40:42;;;;;;;22.45;13.35;;;7.40;99.90;;;;;;5054219;28;20036;-75
2022/03/28 01:43:08;;;;;;;23.13;14.60;;;7.40;99.90;;;;;;5054680;28;20021;-74
2022/03/28 01:45:34;;;;;;;25.13;15.82;;;7.30;99.90;;;;;;5054127;28;20366;-75
2022/03/28 01:47:59;;;;;;;24.35;15.00;;;7.30;99.90;;;;;;5054063;28;20477;-75
2022/03/28 01:50:25;;;;;;;23.30;14.02;;;7.30;99.90;;;;;;5035989;28;20087;-72
2022/03/28 01:52:51;;;;;;;24.70;15.15;;;7.30;99.90;;;;;;5054214;28;20025;-74
2022/03/28 01:55:17;;;;;;;22.58;14.23;;;7.30;99.90;;;;;;5054227;28;20025;-75
2022/03/28 01:57:44;;;;;;;22.63;15.00;;;7.30;99.90;;;;;;5035953;28;20437;-74
2022/03/28 02:00:13;;;;;;;24.52;14.85;;;7.30;99.90;;;;;;5053841;28;20103;-74
2022/03/28 02:02:38;;;;;;;23.27;14.38;;;7.30;99.90;;;;;;5035830;28;20017;-75
2022/03/28 02:05:05;;;;;;;21.95;13.70;;;7.20;99.90;;;;;;5053679;28;20373;-76
2022/03/28 02:07:33;;;;;;;23.52;14.30;;;7.20;99.90;;;;;;5053688;28;20041;-74
2022/03/28 02:09:58;;;;;;;23.70;13.80;;;7.20;99.90;;;;;;5053624;28;20032;-75
2022/03/28 02:12:24;;;;;;;23.48;14.13;;;7.20;99.90;;;;;;5053719;28;20025;-74
2022/03/28 02:14:50;;;;;;;24.92;14.23;;;7.10;99.90;;;;;;5053642;28;20021;-74
2022/03/28 02:17:15;;;;;;;26.15;13.75;;;7.10;99.90;;;;;;5053588;28;20044;-74
2022/03/28 02:19:41;;;;;;;22.95;14.73;;;7.10;99.90;;;;;;5053540;28;20033;-74
2022/03/28 02:22:07;;;;;;;21.33;13.52;;;7.00;99.90;;;;;;5035647;28;20074;-74
2022/03/28 02:24:33;;;;;;;23.63;14.63;;;7.00;99.90;;;;;;5053441;28;20028;-72
2022/03/28 02:26:58;;;;;;;22.05;14.27;;;7.00;99.90;;;;;;5053694;28;20025;-74
2022/03/28 02:29:24;;;;;;;22.38;14.45;;;7.00;99.90;;;;;;5053594;28;20029;-74
2022/03/28 02:31:50;;;;;;;25.63;14.52;;;7.00;99.90;;;;;;5053640;28;20107;-76
2022/03/28 02:34:15;;;;;;;25.63;15.23;;;7.00;99.90;;;;;;5053560;28;20100;-74
2022/03/28 02:36:41;;;;;;;40.28;17.20;;;6.90;99.90;;;;;;5053504;28;20507;-75
2022/03/28 02:39:07;;;;;;;35.85;18.40;;;6.90;99.90;;;;;;5052425;28;20029;-75
2022/03/28 02:41:32;;;;;;;27.92;14.90;;;6.90;99.90;;;;;;5053101;28;20029;-75
2022/03/28 02:43:58;;;;;;;23.83;14.68;;;6.90;99.90;;;;;;5053412;28;20086;-74
2022/03/28 02:46:24;;;;;;;23.02;14.65;;;6.90;99.90;;;;;;5053198;28;20021;-73
2022/03/28 02:48:49;;;;;;;27.52;14.52;;;6.80;99.90;;;;;;5053056;28;20032;-75
2022/03/28 02:51:15;;;;;;;20.45;13.30;;;6.70;99.90;;;;;;5053085;28;20017;-75
2022/03/28 02:53:41;;;;;;;23.00;13.20;;;6.60;99.90;;;;;;5053392;28;20231;-74
2022/03/28 02:56:06;;;;;;;25.48;13.02;;;6.60;99.90;;;;;;5053017;28;20146;-72
2022/03/28 02:58:32;;;;;;;22.27;13.60;;;6.50;99.90;;;;;;5053289;28;20025;-74
2022/03/28 03:00:58;;;;;;;23.67;15.00;;;6.50;99.90;;;;;;5053271;28;20021;-75
2022/03/28 03:03:23;;;;;;;31.67;16.10;;;6.50;99.90;;;;;;5052965;28;20013;-72
2022/03/28 03:05:49;;;;;;;27.58;16.35;;;6.60;99.90;;;;;;5052803;28;20103;-72
2022/03/28 03:08:16;;;;;;;25.55;15.77;;;6.60;99.90;;;;;;5053252;28;20099;-75
2022/03/28 03:10:42;;;;;;;24.67;15.57;;;6.60;99.90;;;;;;5034999;28;20116;-74
2022/03/28 03:13:08;;;;;;;24.45;15.32;;;6.60;99.90;;;;;;5035050;28;20057;-74
2022/03/28 03:15:34;;;;;;;24.13;15.27;;;6.50;99.90;;;;;;5052883;28;20059;-76
2022/03/28 03:18:00;;;;;;;27.80;15.40;;;6.60;99.90;;;;;;5052875;28;20071;-74
2022/03/28 03:20:25;;;;;;;26.50;15.45;;;6.60;99.90;;;;;;5053114;28;20021;-74
2022/03/28 03:22:51;;;;;;;27.02;15.27;;;6.60;99.90;;;;;;5053075;28;20032;-74
2022/03/28 03:25:17;;;;;;;25.70;16.08;;;6.50;99.90;;;;;;5052750;28;20025;-75
2022/03/28 03:27:43;;;;;;;24.98;15.43;;;6.50;99.90;;;;;;5034859;28;20029;-75
2022/03/28 03:30:10;;;;;;;27.58;15.70;;;6.50;99.90;;;;;;5052648;28;20074;-74
2022/03/28 03:32:36;;;;;;;24.08;14.60;;;6.50;99.90;;;;;;5052719;28;20025;-74
2022/03/28 03:35:03;;;;;;;21.05;13.75;;;6.50;99.90;;;;;;5052990;28;20028;-74
2022/03/28 03:37:29;;;;;;;23.92;14.98;;;6.40;99.90;;;;;;5053223;28;20062;-74
2022/03/28 03:39:55;;;;;;;23.35;14.02;;;6.40;99.90;;;;;;5052674;28;20018;-74
2022/03/28 03:42:20;;;;;;;25.85;15.02;;;6.30;99.90;;;;;;5052592;28;20405;-74
2022/03/28 03:44:47;;;;;;;26.92;15.90;;;6.30;99.90;;;;;;5052599;28;20100;-74
2022/03/28 03:47:12;;;;;;;24.92;14.45;;;6.30;99.90;;;;;;5034672;28;20036;-74
2022/03/28 03:49:38;;;;;;;25.90;14.77;;;6.20;99.90;;;;;;5034681;28;20442;-74
2022/03/28 03:52:04;;;;;;;25.17;14.63;;;6.20;99.90;;;;;;5055416;28;20018;-76
2022/03/28 03:54:31;;;;;;;25.27;14.52;;;6.20;99.90;;;;;;5056257;28;20393;-73
2022/03/28 03:56:57;;;;;;;24.20;15.63;;;6.20;99.90;;;;;;5056121;28;20097;-76
2022/03/28 03:59:23;;;;;;;25.52;15.13;;;6.20;99.90;;;;;;5056158;28;20512;-75
2022/03/28 04:01:48;;;;;;;26.40;15.90;;;6.20;99.90;;;;;;5038212;28;20025;-73
2022/03/28 04:04:14;;;;;;;30.30;17.23;;;6.20;99.90;;;;;;5056095;28;20033;-75
2022/03/28 04:06:40;;;;;;;28.60;17.75;;;6.30;99.90;;;;;;5055841;28;20404;-75
2022/03/28 04:09:06;;;;;;;29.50;18.83;;;6.30;99.90;;;;;;5055885;28;20028;-74
2022/03/28 04:11:32;;;;;;;30.85;19.13;;;6.30;99.90;;;;;;5055922;28;20104;-74
2022/03/28 04:13:57;;;;;;;29.25;15.80;;;6.30;99.90;;;;;;5055873;28;20027;-74
2022/03/28 04:16:23;;;;;;;27.63;14.90;;;6.30;99.90;;;;;;5056411;28;20103;-74
2022/03/28 04:18:49;;;;;;;29.45;17.05;;;6.20;99.90;;;;;;5056064;28;20190;-75
2022/03/28 04:21:15;;;;;;;29.83;16.88;;;6.20;99.90;;;;;;5055687;28;20485;-72
2022/03/28 04:23:41;;;;;;;28.83;16.73;;;6.20;99.90;;;;;;5055627;28;20095;-73
2022/03/28 04:26:07;;;;;;;25.92;15.18;;;6.30;99.90;;;;;;5055608;28;20017;-74
2022/03/28 04:28:32;;;;;;;22.25;15.18;;;6.30;99.90;;;;;;5055528;28;20037;-74
2022/03/28 04:30:58;;;;;;;23.67;14.98;;;6.10;99.90;;;;;;5055471;28;20029;-74
2022/03/28 04:33:24;;;;;;;24.67;14.77;;;6.00;99.90;;;;;;5055520;28;20478;-75
2022/03/28 04:35:50;;;;;;;25.10;15.10;;;6.00;99.90;;;;;;5055469;28;20477;-75
2022/03/28 04:38:16;;;;;;;23.63;14.15;;;6.00;99.90;;;;;;5055438;28;20021;-74
2022/03/28 04:40:42;;;;;;;25.05;16.00;;;6.00;99.90;;;;;;5055607;28;20032;-75
2022/03/28 04:43:08;;;;;;;27.73;17.23;;;6.00;99.90;;;;;;5055517;28;20472;-73
2022/03/28 04:45:34;;;;;;;26.92;16.75;;;6.10;99.90;;;;;;5055253;28;20025;-72
2022/03/28 04:48:01;;;;;;;33.08;19.02;;;6.20;99.90;;;;;;5055236;28;20029;-73
2022/03/28 04:50:28;;;;;;;29.70;17.00;;;6.20;99.90;;;;;;5055091;28;20111;-73
2022/03/28 04:52:54;;;;;;;32.30;17.60;;;6.20;99.90;;;;;;5055417;28;20021;-73
2022/03/28 04:55:20;;;;;;;28.60;17.23;;;6.10;99.90;;;;;;5055197;28;20023;-76
2022/03/28 04:57:46;;;;;;;30.25;17.45;;;6.10;99.90;;;;;;5054997;28;20029;-75
2022/03/28 05:00:12;;;;;;;29.58;17.65;;;6.00;99.90;;;;;;5037085;28;20438;-74
2022/03/28 05:02:38;;;;;;;28.08;16.52;;;6.00;99.90;;;;;;5053945;28;20103;-73
2022/03/28 05:05:05;;;;;;;28.95;18.13;;;6.00;99.90;;;;;;5036761;28;20111;-74
2022/03/28 05:07:31;;;;;;;30.92;17.73;;;6.10;99.90;;;;;;5055157;28;20039;-74
2022/03/28 05:09:57;;;;;;;34.47;17.35;;;6.10;99.90;;;;;;5054738;28;20104;-74
2022/03/28 05:12:24;;;;;;;25.17;15.20;;;6.20;99.90;;;;;;5054766;28;20466;-74
2022/03/28 05:14:50;;;;;;;26.88;15.55;;;6.30;99.90;;;;;;5054710;28;20025;-74
2022/03/28 05:17:28;;;;;;;24.70;15.80;;;6.20;99.90;;;;;;5055247;28;20588;-75
2022/03/28 05:19:54;;;;;;;23.25;14.00;;;6.10;99.90;;;;;;5054921;28;20019;-75
2022/03/28 05:22:21;;;;;;;26.15;15.10;;;6.00;99.90;;;;;;5054568;28;20131;-76
2022/03/28 05:24:48;;;;;;;30.17;16.73;;;6.00;99.90;;;;;;5055033;28;20111;-73
2022/03/28 05:27:14;;;;;;;29.60;16.50;;;5.90;99.90;;;;;;5054439;28;20039;-73
2022/03/28 05:29:40;;;;;;;29.23;16.67;;;5.90;99.90;;;;;;5054331;28;20024;-76
2022/03/28 05:32:06;;;;;;;33.72;17.17;;;5.90;99.90;;;;;;5036472;28;20025;-74
2022/03/28 05:34:32;;;;;;;35.55;19.38;;;5.90;99.90;;;;;;5036412;28;20504;-75
2022/03/28 05:36:59;;;;;;;28.90;18.00;;;6.00;99.90;;;;;;5054287;28;20021;-75
2022/03/28 05:39:26;;;;;;;29.90;16.38;;;6.00;99.90;;;;;;5054221;28;20077;-75
2022/03/28 05:41:52;;;;;;;29.20;16.38;;;6.00;99.90;;;;;;5054195;28;20098;-74
2022/03/28 05:44:19;;;;;;;31.58;16.73;;;6.00;99.90;;;;;;5054133;28;20104;-74
2022/03/28 05:46:45;;;;;;;40.53;19.55;;;6.00;99.90;;;;;;5054311;28;20025;-74
2022/03/28 05:49:11;;;;;;;29.05;17.02;;;6.10;99.90;;;;;;5054004;28;20028;-75
2022/03/28 05:51:37;;;;;;;40.58;21.10;;;6.20;99.90;;;;;;5054048;28;20025;-74
2022/03/28 05:54:03;;;;;;;34.55;18.63;;;6.20;99.90;;;;;;5054232;28;20017;-75
2022/03/28 05:56:28;;;;;;;33.78;18.58;;;6.10;99.90;;;;;;5053860;28;20025;-74
2022/03/28 05:58:54;;;;;;;34.97;20.02;;;6.10;99.90;;;;;;5053905;28;20036;-74
2022/03/28 06:01:20;;;;;;;31.52;18.35;;;6.10;99.90;;;;;;5054332;28;20021;-74
2022/03/28 06:03:45;;;;;;;34.45;18.80;;;6.20;99.90;;;;;;5053605;28;20061;-74
2022/03/28 06:06:12;;;;;;;40.80;19.58;;;6.20;99.90;;;;;;5053710;28;20062;-74
2022/03/28 06:08:38;;;;;;;28.20;16.10;;;6.20;99.90;;;;;;5053612;28;20071;-73
2022/03/28 06:11:04;;;;;;;30.75;16.92;;;6.20;99.90;;;;;;5053652;28;20025;-75
2022/03/28 06:13:33;;;;;;;37.58;18.33;;;6.20;99.90;;;;;;5053437;28;20096;-75
2022/03/28 06:15:59;;;;;;;31.08;17.10;;;6.40;99.90;;;;;;5053618;28;20036;-74
2022/03/28 06:18:26;;;;;;;33.75;18.55;;;6.60;99.90;;;;;;5053847;28;20021;-74
2022/03/28 06:20:51;;;;;;;30.45;16.52;;;6.80;99.90;;;;;;5053517;28;20024;-75
2022/03/28 06:23:17;;;;;;;36.08;18.52;;;6.90;99.90;;;;;;5053493;28;20371;-74
2022/03/28 06:25:43;;;;;;;39.33;19.92;;;7.00;99.90;;;;;;5053727;28;20473;-73
2022/03/28 06:28:10;;;;;;;37.03;17.95;;;7.10;99.90;;;;;;5053350;28;20032;-74
2022/03/28 06:30:36;;;;;;;33.58;18.98;;;7.20;99.90;;;;;;5035384;28;20499;-74
2022/03/28 06:33:02;;;;;;;32.60;18.15;;;7.20;99.90;;;;;;5035396;28;20029;-75
2022/03/28 06:35:28;;;;;;;32.50;18.40;;;7.20;99.90;;;;;;5053279;28;20385;-73
2022/03/28 06:37:54;;;;;;;34.65;17.35;;;7.30;99.90;;;;;;5053272;28;20532;-74
2022/03/28 06:40:20;;;;;;;32.40;18.15;;;7.50;99.90;;;;;;5053780;28;20027;-75
2022/03/28 06:42:46;;;;;;;28.73;16.92;;;7.70;99.90;;;;;;5053465;28;20033;-73
2022/03/28 06:45:13;;;;;;;31.20;16.65;;;7.90;99.90;;;;;;5053162;28;20029;-74
2022/03/28 06:47:39;;;;;;;32.85;15.38;;;8.10;99.90;;;;;;5053151;28;20021;-74
2022/03/28 06:50:06;;;;;;;28.75;18.02;;;8.20;99.90;;;;;;5053060;28;20053;-74
2022/03/28 06:52:33;;;;;;;33.70;17.13;;;8.50;99.90;;;;;;5053378;28;20021;-73
2022/03/28 06:54:59;;;;;;;30.10;17.45;;;8.80;99.90;;;;;;5052975;28;20013;-77
2022/03/28 06:57:24;;;;;;;30.95;18.67;;;9.10;99.90;;;;;;5052929;28;20366;-75
2022/03/28 06:59:50;;;;;;;31.45;18.70;;;9.20;99.90;;;;;;5052939;28;20509;-74
2022/03/28 07:02:16;;;;;;;30.65;18.95;;;9.40;99.90;;;;;;5053022;28;20021;-74
2022/03/28 07:04:41;;;;;;;120.45;24.65;;;9.70;99.90;;;;;;5052937;28;20429;-74
2022/03/28 07:07:11;;;;;;;33.53;18.50;;;9.90;99.90;;;;;;5052173;28;20098;-75
2022/03/28 07:09:37;;;;;;;28.00;15.23;;;10.10;99.90;;;;;;5052272;28;20683;-72
2022/03/28 07:12:05;;;;;;;30.15;15.52;;;10.20;99.90;;;;;;5052510;28;20025;-71
2022/03/28 07:14:34;;;;;;;44.85;17.45;;;10.30;99.90;;;;;;5053300;28;20021;-74
2022/03/28 07:17:00;;;;;;;31.92;15.02;;;10.80;99.90;;;;;;5052973;28;20029;-73
2022/03/28 07:19:26;;;;;;;39.47;15.63;;;11.10;99.90;;;;;;5052774;28;20020;-75
2022/03/28 07:21:52;;;;;;;25.88;14.05;;;11.40;99.90;;;;;;5053082;28;20059;-71
2022/03/28 07:24:18;;;;;;;26.38;16.38;;;11.80;99.90;;;;;;5052449;28;20486;-73
2022/03/28 07:26:48;;;;;;;30.58;18.20;;;12.10;99.90;;;;;;5055184;28;20033;-72
2022/03/28 07:29:17;;;;;;;31.48;18.98;;;12.40;99.90;;;;;;5056189;28;20059;-72
2022/03/28 07:31:47;;;;;;;29.42;19.50;;;12.80;99.90;;;;;;5056118;28;20489;-71
2022/03/28 07:34:32;;;;;;;42.40;20.70;;;13.10;99.90;;;;;;5038696;28;20037;-72
2022/03/28 07:37:00;;;;;;;34.60;20.70;;;13.30;99.90;;;;;;5038512;28;20465;-71
2022/03/28 07:39:26;;;;;;;34.50;19.58;;;13.40;99.90;;;;;;5056229;28;20393;-73
2022/03/28 07:41:52;;;;;;;30.85;18.92;;;13.80;99.90;;;;;;5056923;28;20033;-73
2022/03/28 07:44:18;;;;;;;33.30;21.65;;;14.00;99.90;;;;;;5056863;28;20021;-73
2022/03/28 07:46:45;;;;;;;30.33;19.23;;;14.20;99.90;;;;;;5056970;28;20040;-72
2022/03/28 07:49:16;;;;;;;37.72;20.80;;;14.30;99.90;;;;;;5055964;28;20021;-73
2022/03/28 07:51:42;;;;;;;32.38;20.55;;;14.30;99.90;;;;;;5056601;28;20029;-72
2022/03/28 07:54:08;;;;;;;32.13;20.85;;;14.50;99.90;;;;;;5056648;28;20044;-72
2022/03/28 07:56:33;;;;;;;34.80;20.95;;;14.70;99.90;;;;;;5056299;28;20025;-73
2022/03/28 07:58:59;;;;;;;35.60;21.65;;;15.10;99.90;;;;;;5055557;28;20029;-73
2022/03/28 08:01:25;;;;;;;29.85;20.25;;;15.50;99.90;;;;;;5055872;28;20401;-73
2022/03/28 08:03:51;;;;;;;43.08;22.42;;;16.00;99.90;;;;;;5056750;28;20024;-74
2022/03/28 08:06:17;;;;;;;34.63;21.42;;;16.60;99.90;;;;;;5055698;28;20045;-72
2022/03/28 08:08:43;;;;;;;66.90;23.30;;;16.90;99.90;;;;;;5055650;28;20024;-74
2022/03/28 08:11:09;;;;;;;34.05;21.33;;;17.20;99.90;;;;;;5056032;28;20029;-74
2022/03/28 08:13:35;;;;;;;34.08;21.75;;;17.20;99.90;;;;;;5055923;28;20078;-72
2022/03/28 08:16:01;;;;;;;33.10;21.45;;;17.30;99.90;;;;;;5055323;28;20028;-74
2022/03/28 08:18:27;;;;;;;32.45;21.85;;;17.50;99.90;;;;;;5056114;28;20096;-73
2022/03/28 08:20:54;;;;;;;32.95;21.35;;;18.20;99.90;;;;;;5056285;28;20106;-72
2022/03/28 08:23:20;;;;;;;33.55;21.55;;;18.70;99.90;;;;;;5055648;28;20044;-74
2022/03/28 08:25:47;;;;;;;35.35;25.08;;;19.00;99.90;;;;;;5055634;28;20032;-74
2022/03/28 08:28:14;;;;;;;40.17;27.10;;;18.80;99.90;;;;;;5055579;28;20462;-73
2022/03/28 08:30:40;;;;;;;34.90;26.25;;;18.50;99.90;;;;;;5056790;28;20029;-75
2022/03/28 08:33:05;;;;;;;35.17;23.10;;;18.40;99.90;;;;;;5055333;28;20567;-74
2022/03/28 08:35:31;;;;;;;33.70;25.38;;;18.50;99.90;;;;;;5055789;28;20032;-74
2022/03/28 08:37:58;;;;;;;53.50;34.22;;;18.40;99.90;;;;;;5055589;28;20025;-76
2022/03/28 08:40:24;;;;;;;62.85;40.45;;;18.60;99.90;;;;;;5055407;28;20025;-74
2022/03/28 08:42:50;;;;;;;51.00;32.72;;;18.50;99.90;;;;;;5055871;28;20060;-74
2022/03/28 08:45:16;;;;;;;38.13;24.45;;;18.50;99.90;;;;;;5056075;28;20039;-73
2022/03/28 08:47:48;;;;;;;45.47;25.95;;;18.50;99.90;;;;;;5055419;28;20409;-74
2022/03/28 08:50:14;;;;;;;39.17;23.73;;;18.30;99.90;;;;;;5055078;28;20492;-75
2022/03/28 08:52:41;;;;;;;33.50;20.83;;;18.40;99.90;;;;;;5054946;28;20021;-74
2022/03/28 08:55:11;;;;;;;28.95;20.50;;;18.40;99.90;;;;;;5054795;28;20040;-75
2022/03/28 08:57:37;;;;;;;24.73;17.85;;;18.60;99.90;;;;;;5055870;28;20013;-74
2022/03/28 09:00:08;;;;;;;25.33;18.40;;;18.90;99.00;;;;;;5055448;28;20058;-73
2022/03/28 09:02:46;;;;;;;26.70;18.38;;;19.20;97.60;;;;;;5054736;28;20036;-75
2022/03/28 09:05:16;;;;;;;27.60;17.88;;;19.80;97.40;;;;;;5035259;28;20144;-73
2022/03/28 09:07:43;;;;;;;29.15;19.67;;;20.30;95.90;;;;;;5036736;28;20033;-73
2022/03/28 09:10:14;;;;;;;29.23;17.92;;;20.60;95.40;;;;;;5054671;28;20405;-74
2022/03/28 09:12:58;;;;;;;27.38;16.95;;;20.60;95.30;;;;;;5054869;28;20009;-72
2022/03/28 09:15:24;;;;;;;24.35;17.67;;;20.40;94.90;;;;;;5054497;28;20036;-74
2022/03/28 09:17:56;;;;;;;25.33;16.83;;;20.30;94.90;;;;;;5054486;28;20017;-73
2022/03/28 09:20:23;;;;;;;22.98;17.25;;;20.10;95.10;;;;;;5054377;28;20544;-73
2022/03/28 09:22:49;;;;;;;24.98;17.70;;;19.90;94.70;;;;;;5056513;28;20043;-70
2022/03/28 09:25:17;;;;;;;26.40;17.52;;;19.90;95.40;;;;;;5055841;28;20470;-71
2022/03/28 09:27:44;;;;;;;24.15;17.70;;;19.90;95.50;;;;;;5055233;28;20025;-72
2022/03/28 09:30:17;;;;;;;26.10;17.20;;;19.80;95.40;;;;;;5036352;28;20456;-73
2022/03/28 09:32:52;;;;;;;28.42;19.15;;;20.00;95.30;;;;;;5053887;28;20047;-74
2022/03/28 09:35:22;;;;;;;27.30;18.10;;;20.20;95.10;;;;;;5054721;28;20109;-71
2022/03/28 09:38:01;;;;;;;27.23;17.80;;;20.50;95.10;;;;;;5054283;28;20025;-73
2022/03/28 09:40:33;;;;;;;29.33;18.23;;;20.60;94.40;;;;;;5054238;28;20025;-73
2022/03/28 09:43:01;;;;;;;27.90;18.95;;;20.70;94.40;;;;;;5036578;28;20065;-76
2022/03/28 09:45:31;;;;;;;29.02;18.52;;;20.80;94.10;;;;;;5054246;28;20067;-75
2022/03/28 09:48:04;;;;;;;26.80;18.10;;;20.80;94.20;;;;;;5054358;28;20021;-73
2022/03/28 09:50:41;;;;;;;25.98;18.33;;;21.00;94.00;;;;;;5053995;28;20377;-72
2022/03/28 09:53:15;;;;;;;27.67;18.25;;;20.90;94.10;;;;;;5054486;28;20064;-72
2022/03/28 09:56:11;;;;;;;29.15;17.42;;;20.90;94.40;;;;;;5053512;28;20018;-74
2022/03/28 09:58:42;;;;;;;26.55;17.70;;;21.00;93.90;;;;;;5048334;28;20096;-74
2022/03/28 10:01:13;;;;;;;28.05;18.00;;;21.20;94.10;;;;;;5053943;28;20021;-72
2022/03/28 10:03:39;;;;;;;30.58;18.50;;;21.40;94.10;;;;;;5035398;28;20032;-72
2022/03/28 10:06:06;;;;;;;32.17;19.02;;;21.60;93.80;;;;;;5052789;28;20056;-73
2022/03/28 10:08:33;;;;;;;30.33;18.73;;;21.60;93.70;;;;;;5053313;28;20055;-74
2022/03/28 10:10:59;;;;;;;25.77;18.60;;;21.80;93.70;;;;;;5053602;28;20090;-74
2022/03/28 10:13:26;;;;;;;28.75;18.60;;;22.00;93.40;;;;;;5053359;28;20025;-72
2022/03/28 10:15:53;;;;;;;24.98;16.77;;;22.30;93.60;;;;;;5053318;28;20067;-72
2022/03/28 10:18:29;;;;;;;29.90;17.70;;;22.90;92.40;;;;;;5053885;28;20107;-73
2022/03/28 10:20:57;;;;;;;24.92;15.60;;;23.40;91.50;;;;;;5053180;28;20028;-72
2022/03/28 10:23:29;;;;;;;25.30;14.43;;;24.20;90.20;;;;;;5053585;28;20024;-77
2022/03/28 10:25:57;;;;;;;22.35;13.73;;;24.60;87.70;;;;;;5053191;28;20028;-78
2022/03/28 10:28:22;;;;;;;22.60;13.95;;;24.70;86.60;;;;;;5049424;28;20120;-70
2022/03/28 10:30:48;;;;;;;19.30;14.40;;;24.80;86.00;;;;;;5052506;28;20134;-70
2022/03/28 10:33:22;;;;;;;24.30;13.70;;;25.30;84.30;;;;;;5053876;28;20484;-71
2022/03/28 10:36:19;;;;;;;19.52;11.98;;;25.20;82.90;;;;;;5053888;28;20100;-72
2022/03/28 10:38:45;;;;;;;24.38;12.80;;;25.30;81.40;;;;;;5053588;28;20028;-72
2022/03/28 10:41:16;;;;;;;20.23;11.77;;;26.00;80.70;;;;;;5053112;28;20033;-73
2022/03/28 10:43:42;;;;;;;21.58;11.65;;;26.70;78.20;;;;;;5052325;28;20223;-69
2022/03/28 10:46:10;;;;;;;20.25;11.32;;;27.30;75.80;;;;;;5053109;28;20021;-71
2022/03/28 10:48:39;;;;;;;17.70;11.95;;;27.50;72.50;;;;;;5052742;28;20056;-71
2022/03/28 10:51:21;;;;;;;19.05;11.32;;;27.60;70.70;;;;;;5035191;28;20017;-72
2022/03/28 10:53:51;;;;;;;18.02;11.10;;;27.70;70.40;;;;;;5053453;28;20104;-70
2022/03/28 10:56:18;;;;;;;20.65;10.98;;;27.80;68.70;;;;;;5053072;28;20032;-72
2022/03/28 10:58:52;;;;;;;19.02;10.73;;;27.80;67.70;;;;;;5053342;28;20021;-72
2022/03/28 11:01:27;;;;;;;15.75;10.90;;;27.90;66.30;;;;;;5055210;28;20013;-71
2022/03/28 11:04:02;;;;;;;18.17;10.73;;;28.20;65.10;;;;;;5057535;28;20100;-72
2022/03/28 11:06:49;;;;;;;21.30;11.23;;;29.20;63.80;;;;;;5057199;28;20048;-71
2022/03/28 11:09:41;;;;;;;21.08;11.18;;;30.10;60.40;;;;;;5039135;28;20449;-73
2022/03/28 11:12:16;;;;;;;19.00;9.80;;;30.60;59.40;;;;;;5057362;28;20040;-72
2022/03/28 11:14:51;;;;;;;13.60;9.00;;;29.80;57.80;;;;;;5057026;28;20104;-69
2022/03/28 11:17:22;;;;;;;16.50;10.10;;;29.70;56.70;;;;;;5057012;28;20028;-72
2022/03/28 11:20:14;;;;;;;15.27;8.55;;;29.80;57.00;;;;;;5056761;28;20027;-72
2022/03/28 11:23:08;;;;;;;18.85;10.90;;;29.80;55.30;;;;;;5038736;28;20501;-72
2022/03/28 11:25:33;;;;;;;17.67;10.05;;;29.80;55.30;;;;;;5057166;28;20036;-72
2022/03/28 11:28:02;;;;;;;18.27;10.27;;;30.10;53.80;;;;;;5056811;28;20452;-74
2022/03/28 11:30:28;;;;;;;14.85;9.35;;;30.50;53.30;;;;;;5057241;28;20029;-70
2022/03/28 11:32:54;;;;;;;25.65;10.18;;;31.00;51.00;;;;;;5056709;28;20035;-72
2022/03/28 11:35:20;;;;;;;16.85;8.82;;;31.70;52.10;;;;;;5056635;28;20021;-73
2022/03/28 11:37:48;;;;;;;17.95;8.60;;;32.00;50.60;;;;;;5056875;28;20358;-70
2022/03/28 11:40:14;;;;;;;17.13;8.65;;;31.80;49.20;;;;;;5056848;28;20032;-72
2022/03/28 11:42:46;;;;;;;17.00;9.32;;;31.10;49.10;;;;;;5056566;28;20025;-72
2022/03/28 11:45:13;;;;;;;16.00;8.73;;;30.20;49.90;;;;;;5056545;28;20025;-72
2022/03/28 11:47:50;;;;;;;17.13;8.98;;;28.80;51.00;;;;;;5056417;28;20477;-71
2022/03/28 11:50:16;;;;;;;23.05;11.25;;;28.10;53.50;;;;;;5038174;28;20025;-71
2022/03/28 11:52:49;;;;;;;16.70;9.02;;;27.80;54.10;;;;;;5038515;28;20114;-73
2022/03/28 11:55:23;;;;;;;17.77;8.48;;;27.30;54.40;;;;;;5056716;28;20485;-71
2022/03/28 12:00:39;;;;;;;16.63;7.00;;;26.30;54.40;;;;;;5056233;28;20443;-74
2022/03/28 12:03:04;;;;;;;19.08;7.97;;;25.90;53.70;;;;;;5056150;28;20490;-72
2022/03/28 12:05:36;;;;;;;15.55;7.57;;;25.70;55.60;;;;;;5055881;28;20044;-72
2022/03/28 12:08:13;;;;;;;22.40;9.98;;;25.60;55.70;;;;;;5056587;28;20036;-74
2022/03/28 12:10:40;;;;;;;19.23;7.78;;;25.10;57.80;;;;;;5056554;28;20021;-74
2022/03/28 12:13:07;;;;;;;17.17;8.20;;;24.80;55.90;;;;;;5055814;28;20044;-71
2022/03/28 12:15:45;;;;;;;16.85;7.30;;;25.00;56.40;;;;;;5056152;28;20020;-70
2022/03/28 12:18:12;;;;;;;13.05;6.40;;;25.10;54.60;;;;;;5056411;28;20103;-70
2022/03/28 12:20:40;;;;;;;20.52;7.38;;;25.00;55.00;;;;;;5055821;28;20032;-73
2022/03/28 12:23:08;;;;;;;18.50;6.50;;;24.90;54.50;;;;;;5056036;28;20033;-71
2022/03/28 12:25:39;;;;;;;20.90;7.32;;;24.90;53.80;;;;;;5055966;28;20385;-71
2022/03/28 12:28:10;;;;;;;17.23;7.53;;;25.10;54.80;;;;;;5055651;28;20029;-70
2022/03/28 12:30:40;;;;;;;18.85;6.78;;;25.00;54.30;;;;;;5055863;28;20036;-73
2022/03/28 12:33:16;;;;;;;15.48;6.82;;;25.00;54.90;;;;;;5055604;28;20074;-69
2022/03/28 12:36:03;;;;;;;15.55;6.95;;;25.20;54.60;;;;;;5055831;28;20017;-73
2022/03/28 12:38:32;;;;;;;14.13;6.18;;;25.20;54.10;;;;;;5055493;28;20044;-72